Sy Clevelander — 2CWE8 — position and weather

sailwx.info

Track history (hours):
 
Tides and Currents Weather Stations Pressure Air Temp Water Temp Dewpoint Dewpoint Depression Visibility Wind Speed Wind Dir Waves Ship Positions

Sy Clevelander

Last reported at 2015-Apr-28 15:33 UTC. Time now 2015-May-22 20:37 UTC.
Position N 39°34' E 002°39'.
Warning: this ship's position is 24 days out of date.

Length 25 m.

Type: Sailing vessel. MMSI: 235076308.

Date/timePositionNaut miles runAvg speedWind from/ knotsBaromVisibWave heightAir tempDewpointWater temp
2015-Apr-28 15:33N 39°34' E 002°39'0 0.0
2015-Apr-28 14:33N 39°34' E 002°39'0 0.0
2015-Apr-28 13:33N 39°34' E 002°39'0 0.0
2015-Apr-28 12:33N 39°34' E 002°39'0 0.0
2015-Apr-28 11:33N 39°34' E 002°39'1 0.6
2015-Apr-28 10:33N 39°34' E 002°38'  
2015-Apr-21 07:33N 39°34' E 002°38'0 0.2
2015-Apr-21 06:32N 39°34' E 002°38'0 0.0
2015-Apr-21 05:29N 39°34' E 002°38'0 0.0
2015-Apr-21 04:32N 39°34' E 002°38'0 0.0
2015-Apr-21 03:32N 39°34' E 002°38'0 0.0
2015-Apr-21 02:29N 39°34' E 002°38'0 0.0
2015-Apr-21 01:29N 39°34' E 002°38'0 0.0
2015-Apr-21 00:32N 39°34' E 002°38'0 0.0
2015-Apr-20 23:32N 39°34' E 002°38'0 0.0
2015-Apr-20 22:32N 39°34' E 002°38'0 0.0
2015-Apr-20 21:32N 39°34' E 002°38'0 0.0
2015-Apr-20 20:32N 39°34' E 002°38'0 0.5
2015-Apr-20 19:33N 39°33' E 002°38'8 8.0
2015-Apr-20 18:33N 39°27' E 002°32'9 8.9
2015-Apr-20 17:32N 39°20' E 002°25'9 8.7
2015-Apr-20 16:32N 39°13' E 002°18'8 8.2
2015-Apr-20 15:33N 39°07' E 002°11'9 8.0
2015-Apr-20 14:25N 39°00' E 002°03'76 8.3
2015-Apr-20 05:13N 38°12' E 000°47'52 8.6
2015-Apr-19 23:11N 37°44' W 000°07'5 8.3
2015-Apr-19 22:33N 37°41' W 000°13'9 8.5
2015-Apr-19 21:33N 37°36' W 000°21'9 8.5
2015-Apr-19 20:33N 37°31' W 000°30'9 8.8
2015-Apr-19 19:33N 37°26' W 000°39'9 8.6
2015-Apr-19 18:33N 37°22' W 000°49'233 8.6
2015-Apr-18 15:33N 36°03' W 005°22'  
Track history (hours):
 
Tides and Currents Weather Stations Pressure Air Temp Water Temp Dewpoint Dewpoint Depression Visibility Wind Speed Wind Dir Waves Ship Positions

Sy Clevelander

Last reported at 2015-Apr-28 15:33 UTC. Time now 2015-May-22 20:37 UTC.
Position N 39°34' E 002°39'.
Warning: this ship's position is 24 days out of date.

Length 25 m.

Type: Sailing vessel. MMSI: 235076308.

Date/timePositionNaut miles runAvg speedWind from/ knotsBaromVisibWave heightAir tempDewpointWater temp
2015-Apr-28 15:33N 39°34' E 002°39'0 0.0
2015-Apr-28 14:33N 39°34' E 002°39'0 0.0
2015-Apr-28 13:33N 39°34' E 002°39'0 0.0
2015-Apr-28 12:33N 39°34' E 002°39'0 0.0
2015-Apr-28 11:33N 39°34' E 002°39'1 0.6
2015-Apr-28 10:33N 39°34' E 002°38'  
2015-Apr-21 07:33N 39°34' E 002°38'0 0.2
2015-Apr-21 06:32N 39°34' E 002°38'0 0.0
2015-Apr-21 05:29N 39°34' E 002°38'0 0.0
2015-Apr-21 04:32N 39°34' E 002°38'0 0.0
2015-Apr-21 03:32N 39°34' E 002°38'0 0.0
2015-Apr-21 02:29N 39°34' E 002°38'0 0.0
2015-Apr-21 01:29N 39°34' E 002°38'0 0.0
2015-Apr-21 00:32N 39°34' E 002°38'0 0.0
2015-Apr-20 23:32N 39°34' E 002°38'0 0.0
2015-Apr-20 22:32N 39°34' E 002°38'0 0.0
2015-Apr-20 21:32N 39°34' E 002°38'0 0.0
2015-Apr-20 20:32N 39°34' E 002°38'0 0.5
2015-Apr-20 19:33N 39°33' E 002°38'8 8.0
2015-Apr-20 18:33N 39°27' E 002°32'9 8.9
2015-Apr-20 17:32N 39°20' E 002°25'9 8.7
2015-Apr-20 16:32N 39°13' E 002°18'8 8.2
2015-Apr-20 15:33N 39°07' E 002°11'9 8.0
2015-Apr-20 14:25N 39°00' E 002°03'76 8.3
2015-Apr-20 05:13N 38°12' E 000°47'52 8.6
2015-Apr-19 23:11N 37°44' W 000°07'5 8.3
2015-Apr-19 22:33N 37°41' W 000°13'9 8.5
2015-Apr-19 21:33N 37°36' W 000°21'9 8.5
2015-Apr-19 20:33N 37°31' W 000°30'9 8.8
2015-Apr-19 19:33N 37°26' W 000°39'9 8.6
2015-Apr-19 18:33N 37°22' W 000°49'233 8.6
2015-Apr-18 15:33N 36°03' W 005°22'  

Dump ship's entire track history